createdAt,value
2016-10-17T00:00:25.800Z,9.74
2016-10-17T00:01:25.804Z,9.69
2016-10-17T00:02:27.304Z,9.71
2016-10-17T00:03:27.766Z,9.68
2016-10-17T00:04:25.808Z,9.72
2016-10-17T00:05:25.896Z,9.72
2016-10-17T00:06:25.766Z,9.74
2016-10-17T00:07:26.368Z,9.64
2016-10-17T00:08:25.735Z,9.66
2016-10-17T00:09:25.725Z,9.71
2016-10-17T00:10:25.713Z,9.76
2016-10-17T00:11:26.012Z,9.71
2016-10-17T00:13:26.974Z,9.66
2016-10-17T00:14:27.533Z,9.76
2016-10-17T00:15:25.688Z,9.66
2016-10-17T00:16:26.092Z,9.68
2016-10-17T00:17:25.675Z,9.72
2016-10-17T00:18:25.647Z,9.71
2016-10-17T00:19:25.650Z,9.68
2016-10-17T00:20:25.634Z,9.68
2016-10-17T00:21:25.628Z,9.68
2016-10-17T00:22:25.614Z,9.74
2016-10-17T00:23:25.605Z,9.66
2016-10-17T00:24:25.598Z,9.75
2016-10-17T00:25:25.587Z,9.81
2016-10-17T00:26:25.581Z,9.76
2016-10-17T00:27:25.571Z,9.76
2016-10-17T00:28:25.566Z,9.69
2016-10-17T00:29:25.554Z,9.71
2016-10-17T00:30:25.545Z,9.69
2016-10-17T00:31:25.546Z,9.66
2016-10-17T00:32:25.527Z,9.69
2016-10-17T00:33:25.518Z,9.75
2016-10-17T00:34:25.520Z,9.68
2016-10-17T00:35:25.507Z,9.72
2016-10-17T00:36:25.497Z,9.69
2016-10-17T00:37:25.493Z,9.68
2016-10-17T00:38:25.481Z,9.68
2016-10-17T00:39:25.469Z,9.64
2016-10-17T00:40:25.463Z,9.64
2016-10-17T00:41:25.456Z,9.66
2016-10-17T00:42:25.451Z,9.69
2016-10-17T00:43:25.443Z,9.65
2016-10-17T00:44:25.431Z,9.58
2016-10-17T00:45:25.428Z,9.57
2016-10-17T00:46:25.420Z,9.5
2016-10-17T00:47:25.403Z,9.51
2016-10-17T00:48:25.394Z,9.56
2016-10-17T00:49:25.397Z,9.51
2016-10-17T00:50:25.382Z,9.51
2016-10-17T00:51:25.374Z,9.4
2016-10-17T00:52:25.362Z,9.42
2016-10-17T00:53:25.359Z,9.38
2016-10-17T00:54:25.348Z,9.47
2016-10-17T00:55:25.340Z,9.47
2016-10-17T00:56:25.336Z,9.42
2016-10-17T00:57:25.319Z,9.4
2016-10-17T00:58:25.314Z,9.38
2016-10-17T00:59:25.304Z,9.36
2016-10-17T01:00:25.297Z,9.35
2016-10-17T01:01:25.286Z,9.38
2016-10-17T01:02:25.282Z,9.31
2016-10-17T01:03:25.270Z,9.23
2016-10-17T01:04:25.263Z,9.28
2016-10-17T01:05:25.254Z,9.28
2016-10-17T01:06:25.255Z,9.31
2016-10-17T01:07:25.241Z,9.23
2016-10-17T01:08:25.224Z,9.14
2016-10-17T01:09:25.220Z,9.15
2016-10-17T01:10:25.214Z,9.23
2016-10-17T01:11:25.200Z,9.21
2016-10-17T01:12:25.219Z,9.15
2016-10-17T01:13:25.189Z,9.17
2016-10-17T01:14:25.178Z,9.15
2016-10-17T01:15:25.172Z,9.26
2016-10-17T01:16:25.159Z,9.32
2016-10-17T01:17:25.157Z,9.21
2016-10-17T01:18:25.143Z,9.21
2016-10-17T01:19:25.131Z,9.2
2016-10-17T01:20:25.121Z,9.15
2016-10-17T01:21:25.703Z,9.18
2016-10-17T01:22:26.626Z,9.15
2016-10-17T01:23:25.677Z,9.18
2016-10-17T01:24:25.368Z,9.24
2016-10-17T01:25:25.103Z,9.29
2016-10-17T01:26:25.075Z,9.32
2016-10-17T01:27:25.064Z,9.32
2016-10-17T01:28:25.060Z,9.23
2016-10-17T01:29:25.053Z,9.15
2016-10-17T01:30:25.431Z,9.24
2016-10-17T01:31:25.060Z,9.21
2016-10-17T01:32:26.529Z,9.24
2016-10-17T01:33:25.017Z,9.23
2016-10-17T01:34:25.005Z,9.28
2016-10-17T01:35:24.997Z,9.2
2016-10-17T01:36:24.994Z,9.17
2016-10-17T01:37:24.985Z,9.18
2016-10-17T01:38:24.970Z,9.15
2016-10-17T01:39:24.965Z,9.2
2016-10-17T01:40:24.955Z,9.24
2016-10-17T01:41:24.948Z,9.2
2016-10-17T01:42:24.938Z,9.18
2016-10-17T01:43:24.924Z,9.18
2016-10-17T01:44:24.922Z,9.14
2016-10-17T01:45:24.913Z,9.15
2016-10-17T01:46:24.906Z,9.1
2016-10-17T01:47:24.899Z,9.02
2016-10-17T01:48:24.910Z,9.14
2016-10-17T01:49:24.885Z,9.05
2016-10-17T01:50:24.866Z,9.08
2016-10-17T01:51:24.863Z,9.13
2016-10-17T01:52:24.846Z,9.04
2016-10-17T01:53:24.836Z,8.99
2016-10-17T01:54:24.837Z,9.05
2016-10-17T01:55:24.820Z,9.13
2016-10-17T01:56:24.819Z,9.02
2016-10-17T01:57:24.805Z,9.05
2016-10-17T01:58:24.799Z,8.99
2016-10-17T01:59:24.786Z,9.17
2016-10-17T02:00:24.778Z,9.15
2016-10-17T02:01:24.768Z,9.11
2016-10-17T02:02:24.760Z,9.15
2016-10-17T02:03:24.758Z,9.2
2016-10-17T02:04:24.749Z,9.13
2016-10-17T02:05:24.738Z,9.15
2016-10-17T02:06:24.726Z,9.14
2016-10-17T02:07:24.724Z,9.13
2016-10-17T02:08:24.710Z,9.2
2016-10-17T02:09:24.707Z,9.18
2016-10-17T02:10:24.693Z,9.15
2016-10-17T02:11:24.986Z,9.13
2016-10-17T02:12:24.673Z,9.1
2016-10-17T02:13:24.666Z,9.13
2016-10-17T02:14:24.658Z,9.04
2016-10-17T02:15:24.650Z,9.08
2016-10-17T02:16:24.639Z,9.05
2016-10-17T02:17:24.634Z,9.08
2016-10-17T02:18:24.633Z,9.05
2016-10-17T02:19:24.618Z,9.04
2016-10-17T02:20:24.599Z,9.05
2016-10-17T02:21:24.603Z,9.15
2016-10-17T02:22:24.582Z,9.11
2016-10-17T02:23:24.580Z,9.08
2016-10-17T02:24:24.570Z,9.08
2016-10-17T02:25:24.568Z,9.14
2016-10-17T02:26:24.567Z,9.08
2016-10-17T02:27:24.543Z,9.02
2016-10-17T02:28:24.543Z,9.08
2016-10-17T02:29:24.529Z,9.08
2016-10-17T02:30:24.529Z,9.04
2016-10-17T02:31:24.508Z,9.08
2016-10-17T02:32:24.504Z,9.01
2016-10-17T02:33:24.494Z,9.21
2016-10-17T02:34:24.491Z,9.04
2016-10-17T02:35:24.481Z,9.17
2016-10-17T02:36:24.465Z,9.18
2016-10-17T02:37:24.466Z,9.17
2016-10-17T02:38:24.448Z,9.26
2016-10-17T02:40:26.658Z,9.13
2016-10-17T02:41:25.290Z,9.11
2016-10-17T02:42:24.415Z,9.2
2016-10-17T02:43:24.778Z,9.14
2016-10-17T02:44:24.938Z,9.08
2016-10-17T02:45:24.389Z,9.14
2016-10-17T02:46:24.378Z,9.11
2016-10-17T02:47:24.377Z,9.02
2016-10-17T02:48:26.152Z,9.05
2016-10-17T02:49:26.906Z,9.02
2016-10-17T02:50:24.344Z,9.01
2016-10-17T02:51:25.451Z,8.94
2016-10-17T02:52:24.378Z,8.98
2016-10-17T02:53:24.473Z,8.96
2016-10-17T02:54:24.314Z,8.95
2016-10-17T02:55:24.312Z,8.94
2016-10-17T02:56:24.529Z,8.99
2016-10-17T02:57:24.593Z,8.98
2016-10-17T02:58:24.275Z,8.99
2016-10-17T02:59:24.268Z,9.04
2016-10-17T03:00:24.266Z,9.05
2016-10-17T03:01:24.251Z,9.01
2016-10-17T03:02:24.256Z,8.92
2016-10-17T03:03:24.235Z,8.98
2016-10-17T03:04:24.225Z,8.91
2016-10-17T03:05:24.227Z,8.99
2016-10-17T03:06:24.203Z,8.96
2016-10-17T03:07:24.200Z,9.01
2016-10-17T03:08:24.194Z,8.98
2016-10-17T03:09:24.180Z,8.96
2016-10-17T03:10:24.168Z,8.96
2016-10-17T03:11:24.161Z,8.91
2016-10-17T03:12:24.155Z,8.87
2016-10-17T03:13:24.142Z,8.89
2016-10-17T03:14:24.143Z,8.94
2016-10-17T03:15:24.132Z,8.95
2016-10-17T03:16:24.127Z,8.92
2016-10-17T03:17:24.107Z,8.94
2016-10-17T03:18:24.117Z,8.95
2016-10-17T03:19:24.100Z,8.95
2016-10-17T03:20:24.084Z,8.84
2016-10-17T03:21:24.078Z,8.87
2016-10-17T03:22:24.079Z,8.83
2016-10-17T03:23:24.062Z,8.94
2016-10-17T03:24:24.052Z,8.89
2016-10-17T03:25:24.039Z,8.91
2016-10-17T03:26:24.035Z,8.87
2016-10-17T03:27:24.025Z,8.96
2016-10-17T03:28:24.012Z,8.81
2016-10-17T03:29:24.011Z,8.83
2016-10-17T03:30:24.000Z,8.83
2016-10-17T03:31:23.989Z,8.74
2016-10-17T03:32:23.983Z,8.77
2016-10-17T03:33:23.978Z,8.74
2016-10-17T03:34:23.960Z,8.81
2016-10-17T03:35:23.950Z,8.74
2016-10-17T03:36:23.949Z,8.8
2016-10-17T03:37:23.938Z,8.86
2016-10-17T03:38:23.932Z,8.77
2016-10-17T03:39:23.912Z,8.71
2016-10-17T03:40:23.912Z,8.71
2016-10-17T03:41:23.900Z,8.7
2016-10-17T03:42:24.212Z,8.74
2016-10-17T03:43:23.879Z,8.79
2016-10-17T03:44:23.873Z,8.7
2016-10-17T03:45:23.860Z,8.74
2016-10-17T03:46:23.860Z,8.79
2016-10-17T03:47:23.848Z,8.76
2016-10-17T03:48:23.841Z,8.71
2016-10-17T03:49:23.829Z,8.76
2016-10-17T03:50:23.820Z,8.81
2016-10-17T03:51:23.818Z,8.8
2016-10-17T03:52:23.805Z,8.81
2016-10-17T03:53:23.792Z,8.83
2016-10-17T03:54:23.786Z,8.77
2016-10-17T03:55:23.775Z,8.74
2016-10-17T03:56:23.772Z,8.79
2016-10-17T03:57:25.297Z,8.76
2016-10-17T03:59:25.420Z,8.71
2016-10-17T04:00:24.780Z,8.81
2016-10-17T04:01:24.201Z,8.8
2016-10-17T04:02:23.715Z,8.76
2016-10-17T04:03:23.706Z,8.73
2016-10-17T04:04:23.697Z,8.68
2016-10-17T04:05:23.993Z,8.71
2016-10-17T04:06:25.199Z,8.81
2016-10-17T04:08:23.725Z,8.76
2016-10-17T04:09:23.781Z,8.7
2016-10-17T04:10:23.640Z,8.66
2016-10-17T04:11:24.421Z,8.68
2016-10-17T04:12:23.629Z,8.74
2016-10-17T04:13:23.614Z,8.76
2016-10-17T04:14:23.906Z,8.65
2016-10-17T04:15:23.594Z,8.76
2016-10-17T04:16:23.591Z,8.71
2016-10-17T04:17:23.576Z,8.71
2016-10-17T04:18:23.576Z,8.63
2016-10-17T04:19:23.558Z,8.61
2016-10-17T04:20:23.554Z,8.61
2016-10-17T04:21:23.547Z,8.61
2016-10-17T04:22:23.532Z,8.61
2016-10-17T04:23:23.532Z,8.61
2016-10-17T04:24:23.513Z,8.62
2016-10-17T04:25:23.515Z,8.66
2016-10-17T04:26:23.495Z,8.53
2016-10-17T04:27:23.495Z,8.5
2016-10-17T04:28:23.497Z,8.58
2016-10-17T04:29:23.474Z,8.55
2016-10-17T04:30:23.459Z,8.61
2016-10-17T04:31:23.453Z,8.59
2016-10-17T04:32:23.444Z,8.63
2016-10-17T04:33:23.435Z,8.63
2016-10-17T04:34:23.425Z,8.63
2016-10-17T04:35:23.413Z,8.59
2016-10-17T04:36:23.407Z,8.66
2016-10-17T04:37:23.409Z,8.63
2016-10-17T04:38:23.389Z,8.58
2016-10-17T04:39:23.379Z,8.55
2016-10-17T04:40:23.370Z,8.52
2016-10-17T04:41:23.363Z,8.48
2016-10-17T04:42:23.354Z,8.48
2016-10-17T04:43:23.343Z,8.5
2016-10-17T04:44:23.339Z,8.52
2016-10-17T04:45:23.325Z,8.36
2016-10-17T04:46:23.316Z,8.48
2016-10-17T04:47:23.307Z,8.36
2016-10-17T04:48:23.298Z,8.4
2016-10-17T04:49:23.288Z,8.4
2016-10-17T04:50:23.274Z,8.4
2016-10-17T04:51:23.281Z,8.45
2016-10-17T04:52:23.259Z,8.44
2016-10-17T04:53:23.251Z,8.36
2016-10-17T04:54:23.243Z,8.47
2016-10-17T04:55:23.238Z,8.44
2016-10-17T04:56:23.221Z,8.4
2016-10-17T04:57:23.219Z,8.47
2016-10-17T04:58:23.209Z,8.41
2016-10-17T04:59:23.193Z,8.47
2016-10-17T05:00:23.196Z,8.44
2016-10-17T05:01:23.180Z,8.45
2016-10-17T05:02:23.470Z,8.5
2016-10-17T05:03:23.158Z,8.38
2016-10-17T05:04:23.152Z,8.41
2016-10-17T05:05:23.143Z,8.4
2016-10-17T05:06:23.127Z,8.43
2016-10-17T05:07:23.120Z,8.45
2016-10-17T05:08:23.115Z,8.48
2016-10-17T05:09:23.103Z,8.38
2016-10-17T05:10:23.093Z,8.45
2016-10-17T05:11:23.092Z,8.36
2016-10-17T05:12:23.071Z,8.38
2016-10-17T05:13:23.074Z,8.38
2016-10-17T05:14:23.058Z,8.45
2016-10-17T05:15:23.045Z,8.34
2016-10-17T05:16:24.555Z,8.43
2016-10-17T05:17:23.927Z,8.43
2016-10-17T05:18:23.019Z,8.41
2016-10-17T05:19:25.017Z,8.37
2016-10-17T05:20:24.148Z,8.37
2016-10-17T05:21:22.995Z,8.34
2016-10-17T05:22:22.988Z,8.45
2016-10-17T05:23:22.973Z,8.34
2016-10-17T05:24:22.960Z,8.47
2016-10-17T05:25:23.929Z,8.36
2016-10-17T05:26:23.062Z,8.34
2016-10-17T05:27:24.230Z,8.36
2016-10-17T05:28:22.931Z,8.38
2016-10-17T05:29:23.689Z,8.34
2016-10-17T05:30:23.116Z,8.44
2016-10-17T05:31:22.910Z,8.38
2016-10-17T05:32:22.887Z,8.33
2016-10-17T05:33:22.879Z,8.36
2016-10-17T05:34:22.877Z,8.38
2016-10-17T05:35:22.869Z,8.36
2016-10-17T05:36:22.862Z,8.33
2016-10-17T05:37:22.850Z,8.36
2016-10-17T05:38:22.839Z,8.28
2016-10-17T05:39:22.823Z,8.28
2016-10-17T05:40:22.812Z,8.28
2016-10-17T05:41:22.801Z,8.33
2016-10-17T05:42:22.805Z,8.29
2016-10-17T05:43:22.790Z,8.2
2016-10-17T05:44:22.780Z,8.29
2016-10-17T05:45:22.773Z,8.34
2016-10-17T05:46:22.761Z,8.29
2016-10-17T05:47:22.754Z,8.36
2016-10-17T05:48:22.740Z,8.25
2016-10-17T05:49:22.733Z,8.23
2016-10-17T05:50:22.728Z,8.29
2016-10-17T05:51:22.717Z,8.29
2016-10-17T05:52:22.702Z,8.28
2016-10-17T05:53:22.694Z,8.29
2016-10-17T05:54:22.681Z,8.25
2016-10-17T05:55:22.679Z,8.25
2016-10-17T05:56:22.663Z,8.29
2016-10-17T05:57:22.656Z,8.22
2016-10-17T05:58:22.648Z,8.29
2016-10-17T05:59:22.635Z,8.25
2016-10-17T06:00:22.632Z,8.36
2016-10-17T06:01:22.615Z,8.28
2016-10-17T06:02:22.604Z,8.3
2016-10-17T06:03:22.598Z,8.34
2016-10-17T06:04:22.594Z,8.33
2016-10-17T06:05:22.580Z,8.29
2016-10-17T06:06:22.575Z,8.4
2016-10-17T06:07:22.564Z,8.47
2016-10-17T06:08:22.551Z,8.34
2016-10-17T06:09:22.543Z,8.48
2016-10-17T06:10:22.535Z,8.45
2016-10-17T06:11:22.523Z,8.4
2016-10-17T06:12:22.519Z,8.36
2016-10-17T06:13:22.509Z,8.34
2016-10-17T06:14:22.499Z,8.36
2016-10-17T06:15:22.493Z,8.37
2016-10-17T06:16:22.481Z,8.34
2016-10-17T06:17:22.469Z,8.37
2016-10-17T06:18:22.455Z,8.34
2016-10-17T06:19:22.454Z,8.34
2016-10-17T06:20:22.446Z,8.44
2016-10-17T06:21:22.430Z,8.33
2016-10-17T06:22:22.421Z,8.43
2016-10-17T06:23:22.416Z,8.52
2016-10-17T06:24:22.402Z,8.43
2016-10-17T06:25:22.397Z,8.45
2016-10-17T06:26:22.385Z,8.47
2016-10-17T06:27:22.374Z,8.4
2016-10-17T06:28:22.369Z,8.38
2016-10-17T06:29:22.360Z,8.33
2016-10-17T06:30:22.350Z,8.3
2016-10-17T06:31:22.341Z,8.43
2016-10-17T06:32:22.336Z,8.41
2016-10-17T06:33:22.322Z,8.41
2016-10-17T06:34:23.606Z,8.44
2016-10-17T06:35:23.706Z,8.37
2016-10-17T06:36:23.579Z,8.52
2016-10-17T06:37:22.285Z,8.43
2016-10-17T06:38:22.286Z,8.34
2016-10-17T06:39:22.266Z,8.41
2016-10-17T06:40:22.976Z,8.44
2016-10-17T06:41:22.244Z,8.4
2016-10-17T06:42:22.243Z,8.45
2016-10-17T06:43:23.671Z,8.45
2016-10-17T06:44:24.195Z,8.47
2016-10-17T06:45:23.153Z,8.47
2016-10-17T06:46:22.198Z,8.48
2016-10-17T06:47:22.948Z,8.5
2016-10-17T06:48:23.222Z,8.53
2016-10-17T06:49:22.496Z,8.52
2016-10-17T06:50:22.172Z,8.52
2016-10-17T06:51:22.155Z,8.56
2016-10-17T06:52:22.150Z,8.61
2016-10-17T06:53:22.137Z,8.63
2016-10-17T06:54:22.137Z,8.61
2016-10-17T06:55:22.145Z,8.63
2016-10-17T06:56:22.119Z,8.61
2016-10-17T06:57:22.119Z,8.61
2016-10-17T06:58:22.097Z,8.55
2016-10-17T06:59:22.087Z,8.55
2016-10-17T07:00:22.075Z,8.58
2016-10-17T07:01:22.062Z,8.53
2016-10-17T07:02:22.062Z,8.5
2016-10-17T07:03:22.047Z,8.63
2016-10-17T07:04:22.043Z,8.61
2016-10-17T07:05:22.033Z,8.62
2016-10-17T07:06:22.038Z,8.65
2016-10-17T07:07:22.016Z,8.55
2016-10-17T07:08:22.008Z,8.7
2016-10-17T07:09:22.000Z,8.71
2016-10-17T07:10:21.992Z,8.81
2016-10-17T07:11:21.976Z,8.74
2016-10-17T07:12:21.970Z,8.79
2016-10-17T07:13:21.964Z,8.79
2016-10-17T07:14:21.951Z,8.8
2016-10-17T07:15:21.939Z,8.89
2016-10-17T07:16:21.935Z,8.84
2016-10-17T07:17:21.921Z,8.81
2016-10-17T07:18:21.920Z,8.89
2016-10-17T07:19:21.907Z,8.98
2016-10-17T07:20:21.900Z,8.92
2016-10-17T07:21:21.888Z,8.99
2016-10-17T07:22:21.883Z,8.99
2016-10-17T07:23:21.871Z,9.08
2016-10-17T07:24:21.866Z,9.23
2016-10-17T07:25:21.860Z,9.14
2016-10-17T07:26:21.844Z,9.18
2016-10-17T07:27:21.835Z,9.13
2016-10-17T07:28:21.828Z,9.2
2016-10-17T07:29:21.816Z,9.17
2016-10-17T07:30:21.808Z,9.18
2016-10-17T07:31:21.811Z,9.17
2016-10-17T07:32:22.110Z,9.11
2016-10-17T07:33:21.790Z,9.17
2016-10-17T07:34:21.780Z,9.24
2016-10-17T07:35:21.769Z,9.13
2016-10-17T07:36:21.796Z,9.18
2016-10-17T07:37:21.757Z,9.18
2016-10-17T07:38:21.740Z,9.29
2016-10-17T07:39:21.735Z,9.35
2016-10-17T07:40:21.732Z,9.28
2016-10-17T07:41:21.722Z,9.31
2016-10-17T07:42:21.716Z,9.36
2016-10-17T07:43:21.705Z,9.4
2016-10-17T07:44:21.694Z,9.35
2016-10-17T07:45:21.690Z,9.36
2016-10-17T07:46:21.679Z,9.36
2016-10-17T07:47:21.671Z,9.38
2016-10-17T07:48:21.663Z,9.42
2016-10-17T07:49:21.655Z,9.38
2016-10-17T07:50:21.653Z,9.4
2016-10-17T07:51:21.649Z,9.33
2016-10-17T07:52:23.043Z,9.29
2016-10-17T07:53:22.473Z,9.32
2016-10-17T07:54:22.238Z,9.32
2016-10-17T07:55:21.997Z,9.32
2016-10-17T07:56:21.600Z,9.39
2016-10-17T07:57:21.841Z,9.29
2016-10-17T07:58:21.831Z,9.33
2016-10-17T07:59:21.569Z,9.36
2016-10-17T08:00:21.561Z,9.43
2016-10-17T08:02:22.237Z,9.23
2016-10-17T08:03:24.134Z,9.21
2016-10-17T08:04:21.532Z,9.23
2016-10-17T08:05:21.521Z,9.15
2016-10-17T08:06:21.861Z,9.15
2016-10-17T08:07:21.510Z,9.18
2016-10-17T08:08:21.503Z,9.21
2016-10-17T08:09:21.488Z,9.17
2016-10-17T08:10:21.485Z,9.18
2016-10-17T08:11:21.470Z,9.23
2016-10-17T08:12:21.466Z,9.18
2016-10-17T08:13:21.455Z,9.15
2016-10-17T08:14:21.442Z,9.02
2016-10-17T08:15:21.436Z,9.18
2016-10-17T08:16:21.430Z,9.15
2016-10-17T08:17:21.416Z,9.2
2016-10-17T08:18:21.410Z,9.31
2016-10-17T08:19:21.413Z,9.32
2016-10-17T08:20:21.400Z,9.31
2016-10-17T08:21:21.389Z,9.33
2016-10-17T08:22:21.378Z,9.38
2016-10-17T08:23:21.405Z,9.4
2016-10-17T08:24:21.364Z,9.29
2016-10-17T08:25:21.352Z,9.39
2016-10-17T08:26:21.350Z,9.39
2016-10-17T08:27:21.336Z,9.38
2016-10-17T08:28:21.670Z,9.46
2016-10-17T08:29:21.329Z,9.4
2016-10-17T08:30:21.311Z,9.46
2016-10-17T08:31:21.306Z,9.39
2016-10-17T08:32:21.295Z,9.47
2016-10-17T08:33:21.299Z,9.47
2016-10-17T08:34:21.278Z,9.46
2016-10-17T08:35:21.272Z,9.48
2016-10-17T08:36:21.262Z,9.46
2016-10-17T08:37:21.252Z,9.57
2016-10-17T08:38:21.251Z,9.54
2016-10-17T08:39:21.240Z,9.56
2016-10-17T08:40:21.236Z,9.64
2016-10-17T08:41:21.226Z,9.66
2016-10-17T08:42:21.221Z,9.65
2016-10-17T08:43:21.207Z,9.72
2016-10-17T08:44:21.196Z,9.69
2016-10-17T08:45:21.189Z,9.68
2016-10-17T08:46:21.189Z,9.68
2016-10-17T08:47:21.174Z,9.71
2016-10-17T08:48:21.169Z,9.78
2016-10-17T08:49:21.164Z,9.76
2016-10-17T08:50:21.153Z,9.78
2016-10-17T08:51:21.147Z,9.76
2016-10-17T08:52:21.137Z,9.75
2016-10-17T08:53:21.127Z,9.76
2016-10-17T08:54:21.152Z,9.84
2016-10-17T08:55:21.113Z,9.91
2016-10-17T08:56:21.104Z,9.87
2016-10-17T08:57:21.095Z,9.86
2016-10-17T08:58:21.086Z,9.86
2016-10-17T08:59:21.076Z,9.79
2016-10-17T09:00:21.073Z,9.84
2016-10-17T09:01:21.072Z,9.87
2016-10-17T09:02:21.056Z,9.86
2016-10-17T09:03:21.048Z,9.86
2016-10-17T09:04:21.038Z,9.94
2016-10-17T09:05:21.029Z,9.97
2016-10-17T09:06:21.023Z,9.96
2016-10-17T09:07:21.019Z,9.99
2016-10-17T09:08:21.008Z,10.11
2016-10-17T09:09:21.001Z,10.11
2016-10-17T09:11:22.505Z,10.01
2016-10-17T09:12:21.298Z,10.07
2016-10-17T09:13:21.993Z,10.02
2016-10-17T09:14:22.326Z,10.11
2016-10-17T09:15:21.386Z,10.07
2016-10-17T09:16:20.950Z,10.11
2016-10-17T09:17:20.941Z,9.97
2016-10-17T09:18:20.937Z,10.01
2016-10-17T09:19:20.928Z,10.04
2016-10-17T09:21:22.789Z,10.09
2016-10-17T09:22:20.898Z,10.18
2016-10-17T09:23:21.587Z,10.23
2016-10-17T09:24:21.128Z,10.25
2016-10-17T09:25:20.894Z,10.34
2016-10-17T09:26:20.870Z,10.23
2016-10-17T09:27:20.864Z,10.33
2016-10-17T09:28:20.858Z,10.29
2016-10-17T09:29:20.849Z,10.3
2016-10-17T09:30:20.876Z,10.3
2016-10-17T09:31:21.163Z,10.22
2016-10-17T09:32:20.828Z,10.18
2016-10-17T09:33:20.825Z,10.26
2016-10-17T09:34:20.812Z,10.27
2016-10-17T09:35:20.797Z,10.25
2016-10-17T09:36:20.797Z,10.23
2016-10-17T09:37:20.790Z,10.2
2016-10-17T09:38:20.775Z,10.18
2016-10-17T09:39:20.772Z,10.23
2016-10-17T09:40:20.769Z,10.23
2016-10-17T09:41:20.761Z,10.36
2016-10-17T09:42:20.749Z,10.2
2016-10-17T09:43:20.748Z,10.4
2016-10-17T09:44:20.771Z,10.38
2016-10-17T09:45:20.728Z,10.32
2016-10-17T09:46:20.721Z,10.34
2016-10-17T09:47:20.717Z,10.33
2016-10-17T09:48:20.703Z,10.34
2016-10-17T09:49:20.704Z,10.41
2016-10-17T09:50:20.697Z,10.47
2016-10-17T09:51:20.690Z,10.45
2016-10-17T09:52:20.677Z,10.59
2016-10-17T09:53:20.680Z,10.59
2016-10-17T09:54:20.663Z,10.6
2016-10-17T09:55:20.664Z,10.73
2016-10-17T09:56:20.947Z,10.63
2016-10-17T09:57:20.639Z,10.64
2016-10-17T09:58:20.636Z,10.63
2016-10-17T09:59:20.664Z,10.52
2016-10-17T10:00:20.623Z,10.59
2016-10-17T10:01:20.613Z,10.45
2016-10-17T10:02:20.607Z,10.44
2016-10-17T10:03:20.597Z,10.6
2016-10-17T10:04:20.591Z,10.53
2016-10-17T10:05:20.587Z,10.53
2016-10-17T10:06:20.573Z,10.61
2016-10-17T10:07:20.576Z,10.6
2016-10-17T10:08:20.557Z,10.56
2016-10-17T10:09:20.563Z,10.66
2016-10-17T10:10:20.546Z,10.7
2016-10-17T10:11:20.541Z,10.81
2016-10-17T10:12:20.834Z,10.85
2016-10-17T10:13:20.532Z,10.91
2016-10-17T10:14:20.527Z,10.88
2016-10-17T10:15:20.516Z,10.88
2016-10-17T10:16:20.513Z,10.88
2016-10-17T10:17:20.515Z,10.96
2016-10-17T10:18:20.494Z,10.86
2016-10-17T10:19:20.489Z,10.78
2016-10-17T10:20:20.482Z,10.76
2016-10-17T10:21:20.479Z,10.81
2016-10-17T10:22:20.465Z,10.71
2016-10-17T10:23:20.455Z,10.78
2016-10-17T10:24:20.750Z,10.67
2016-10-17T10:25:20.452Z,10.67
2016-10-17T10:26:20.478Z,10.53
2016-10-17T10:27:20.436Z,10.6
2016-10-17T10:28:20.426Z,10.51
2016-10-17T10:29:21.942Z,10.61
2016-10-17T10:30:20.412Z,10.56
2016-10-17T10:31:20.404Z,10.53
2016-10-17T10:32:20.399Z,10.48
2016-10-17T10:33:20.470Z,10.45
2016-10-17T10:34:20.387Z,10.44
2016-10-17T10:35:20.380Z,10.41
2016-10-17T10:36:20.375Z,10.44
2016-10-17T10:37:20.364Z,10.45
2016-10-17T10:38:21.776Z,10.42
2016-10-17T10:39:22.025Z,10.47
2016-10-17T10:40:20.764Z,10.53
2016-10-17T10:41:20.341Z,10.53
2016-10-17T10:42:20.330Z,10.56
2016-10-17T10:43:20.319Z,10.55
2016-10-17T10:44:20.313Z,10.56
2016-10-17T10:45:20.307Z,10.6
2016-10-17T10:46:20.299Z,10.66
2016-10-17T10:47:20.296Z,10.78
2016-10-17T10:48:20.287Z,10.68
2016-10-17T10:49:20.276Z,10.78
2016-10-17T10:50:20.278Z,10.78
2016-10-17T10:51:20.261Z,10.74
2016-10-17T10:52:20.251Z,10.73
2016-10-17T10:53:20.247Z,10.76
2016-10-17T10:54:20.245Z,10.68
2016-10-17T10:55:20.233Z,10.73
2016-10-17T10:56:20.230Z,10.64
2016-10-17T10:57:20.219Z,10.66
2016-10-17T10:58:20.213Z,10.73
2016-10-17T10:59:20.204Z,10.67
2016-10-17T11:00:20.203Z,10.73
2016-10-17T11:01:20.489Z,10.74
2016-10-17T11:02:20.182Z,10.78
2016-10-17T11:03:20.209Z,10.76
2016-10-17T11:04:20.176Z,10.79
2016-10-17T11:05:20.164Z,10.74
2016-10-17T11:06:20.152Z,10.76
2016-10-17T11:07:20.152Z,10.84
2016-10-17T11:08:20.150Z,10.78
2016-10-17T11:09:20.131Z,10.84
2016-10-17T11:10:20.121Z,10.92
2016-10-17T11:11:20.115Z,10.89
2016-10-17T11:12:20.111Z,10.76
2016-10-17T11:13:20.103Z,10.74
2016-10-17T11:14:20.103Z,10.71
2016-10-17T11:15:20.125Z,10.71
2016-10-17T11:16:20.090Z,10.63
2016-10-17T11:17:20.077Z,10.6
2016-10-17T11:18:20.065Z,10.63
2016-10-17T11:19:20.063Z,10.55
2016-10-17T11:20:20.059Z,10.6
2016-10-17T11:21:20.053Z,10.66
2016-10-17T11:22:20.041Z,10.55
2016-10-17T11:23:20.030Z,10.6
2016-10-17T11:24:20.023Z,10.66
2016-10-17T11:25:20.023Z,10.66
2016-10-17T11:26:20.008Z,10.59
2016-10-17T11:27:20.014Z,10.61
2016-10-17T11:28:20.002Z,10.63
2016-10-17T11:29:19.994Z,10.68
2016-10-17T11:30:19.988Z,10.79
2016-10-17T11:31:19.981Z,10.78
2016-10-17T11:32:19.965Z,10.85
2016-10-17T11:33:19.971Z,10.91
2016-10-17T11:34:19.957Z,10.92
2016-10-17T11:35:19.948Z,11.03
2016-10-17T11:36:19.947Z,11.03
2016-10-17T11:37:19.930Z,11.11
2016-10-17T11:38:19.927Z,11.06
2016-10-17T11:39:19.926Z,11.14
2016-10-17T11:40:19.909Z,11.1
2016-10-17T11:41:19.939Z,11.14
2016-10-17T11:42:20.202Z,11.18
2016-10-17T11:43:19.891Z,11.27
2016-10-17T11:44:19.885Z,11.27
2016-10-17T11:45:19.886Z,11.27
2016-10-17T11:46:19.873Z,11.25
2016-10-17T11:47:21.729Z,11.18
2016-10-17T11:48:22.288Z,11.32
2016-10-17T11:49:21.341Z,11.28
2016-10-17T11:50:20.745Z,11.27
2016-10-17T11:51:19.842Z,11.29
2016-10-17T11:52:19.830Z,11.27
2016-10-17T11:53:19.827Z,11.32
2016-10-17T11:54:19.828Z,11.28
2016-10-17T11:55:19.812Z,11.22
2016-10-17T11:56:20.872Z,11.22
2016-10-17T11:57:19.880Z,11.28
2016-10-17T11:58:19.789Z,11.28
2016-10-17T11:59:19.783Z,11.25
2016-10-17T12:00:20.782Z,11.18
2016-10-17T12:01:19.768Z,11.27
2016-10-17T12:02:19.771Z,11.29
2016-10-17T12:03:19.756Z,11.24
2016-10-17T12:04:19.748Z,11.27
2016-10-17T12:05:19.740Z,11.22
2016-10-17T12:06:19.745Z,11.21
2016-10-17T12:07:19.743Z,11.27
2016-10-17T12:08:19.718Z,11.22
2016-10-17T12:09:19.729Z,11.27
2016-10-17T12:10:19.703Z,11.22
2016-10-17T12:11:19.880Z,11.1
2016-10-17T12:12:19.693Z,11.07
2016-10-17T12:13:19.686Z,11.02
2016-10-17T12:14:19.684Z,11
2016-10-17T12:15:19.678Z,10.94
2016-10-17T12:16:19.663Z,10.99
2016-10-17T12:17:19.657Z,10.92
2016-10-17T12:18:19.647Z,10.85
2016-10-17T12:19:19.646Z,10.92
2016-10-17T12:20:19.641Z,10.86
2016-10-17T12:21:19.628Z,10.92
2016-10-17T12:22:19.624Z,10.84
2016-10-17T12:23:19.614Z,10.81
2016-10-17T12:24:19.612Z,10.81
2016-10-17T12:25:19.599Z,10.79
2016-10-17T12:26:19.598Z,10.74
2016-10-17T12:27:19.889Z,10.73
2016-10-17T12:28:19.580Z,10.78
2016-10-17T12:29:19.577Z,10.85
2016-10-17T12:30:19.569Z,10.84
2016-10-17T12:31:19.554Z,10.85
2016-10-17T12:32:19.559Z,10.89
2016-10-17T12:33:19.545Z,10.89
2016-10-17T12:34:19.537Z,10.85
2016-10-17T12:35:19.527Z,10.97
2016-10-17T12:36:19.528Z,10.92
2016-10-17T12:37:19.513Z,10.96
2016-10-17T12:38:19.511Z,10.96
2016-10-17T12:39:19.497Z,10.88
2016-10-17T12:40:19.490Z,10.88
2016-10-17T12:41:19.486Z,10.89
2016-10-17T12:42:19.481Z,10.84
2016-10-17T12:43:19.472Z,10.99
2016-10-17T12:44:19.463Z,11.03
2016-10-17T12:45:19.456Z,10.85
2016-10-17T12:46:19.452Z,10.85
2016-10-17T12:47:19.444Z,10.82
2016-10-17T12:48:19.439Z,10.78
2016-10-17T12:49:19.427Z,10.82
2016-10-17T12:50:19.424Z,10.88
2016-10-17T12:51:19.417Z,10.88
2016-10-17T12:52:19.412Z,10.82
2016-10-17T12:53:19.403Z,10.88
2016-10-17T12:54:19.391Z,10.89
2016-10-17T12:55:19.385Z,10.86
2016-10-17T12:56:19.417Z,10.89
2016-10-17T12:57:19.375Z,10.88
2016-10-17T12:58:19.366Z,10.85
2016-10-17T12:59:19.359Z,10.86
2016-10-17T13:00:19.351Z,10.89
2016-10-17T13:01:19.347Z,10.91
2016-10-17T13:02:19.337Z,11.02
2016-10-17T13:03:19.329Z,10.88
2016-10-17T13:04:19.323Z,10.86
2016-10-17T13:05:20.501Z,10.86
2016-10-17T13:06:20.296Z,10.91
2016-10-17T13:07:20.400Z,10.86
2016-10-17T13:08:20.437Z,11.03
2016-10-17T13:09:20.137Z,10.96
2016-10-17T13:10:19.377Z,11.06
2016-10-17T13:11:19.280Z,11.09
2016-10-17T13:12:19.270Z,11.04
2016-10-17T13:13:19.302Z,11.06
2016-10-17T13:15:19.603Z,10.94
2016-10-17T13:16:21.937Z,10.97
2016-10-17T13:17:19.234Z,11.02
2016-10-17T13:18:19.559Z,11.07
2016-10-17T13:19:19.223Z,11.03
2016-10-17T13:20:19.384Z,10.96